TimeEST,TemperatureF,Dew PointF,Humidity,Sea Level PressureIn,VisibilityMPH,Wind Direction,Wind SpeedMPH,Gust SpeedMPH,PrecipitationIn,Events,Conditions,WindDirDegrees,DateUTC
12:53 AM,41.0,32.0,70,30.21,10.0,Calm,Calm,-,N/A,,Clear,0,2012-12-15 05:53:00
1:53 AM,42.1,32.0,67,30.22,10.0,Calm,Calm,-,N/A,,Clear,0,2012-12-15 06:53:00
2:53 AM,41.0,32.0,70,30.20,10.0,Calm,Calm,-,N/A,,Clear,0,2012-12-15 07:53:00
3:53 AM,42.1,33.1,70,30.21,10.0,Calm,Calm,-,N/A,,Clear,0,2012-12-15 08:53:00
4:53 AM,42.1,33.1,70,30.20,10.0,Calm,Calm,-,N/A,,Clear,0,2012-12-15 09:53:00
5:53 AM,43.0,33.1,68,30.21,10.0,ENE,3.5,-,N/A,,Clear,60,2012-12-15 10:53:00
6:53 AM,43.0,33.1,68,30.21,10.0,Calm,Calm,-,N/A,,Clear,0,2012-12-15 11:53:00
7:53 AM,43.0,33.1,68,30.22,10.0,ENE,3.5,-,N/A,,Clear,60,2012-12-15 12:53:00
9:53 AM,46.9,33.1,59,30.24,10.0,East,5.8,-,N/A,,Mostly Cloudy,100,2012-12-15 14:53:00
10:53 AM,50.0,34.0,54,30.24,10.0,ESE,3.5,-,N/A,,Overcast,110,2012-12-15 15:53:00
11:53 AM,52.0,34.0,50,30.22,10.0,SE,5.8,-,N/A,,Overcast,140,2012-12-15 16:53:00
12:53 PM,53.1,35.1,50,30.19,10.0,East,3.5,-,N/A,,Mostly Cloudy,90,2012-12-15 17:53:00
1:53 PM,54.0,35.1,49,30.14,10.0,SE,6.9,-,N/A,,Overcast,140,2012-12-15 18:53:00
2:53 PM,53.1,36.0,52,30.13,10.0,ESE,5.8,-,N/A,,Mostly Cloudy,120,2012-12-15 19:53:00
3:53 PM,54.0,37.0,53,30.11,10.0,Variable,4.6,-,N/A,,Mostly Cloudy,0,2012-12-15 20:53:00
4:53 PM,53.1,37.9,57,30.12,10.0,ESE,5.8,-,N/A,,Overcast,110,2012-12-15 21:53:00
5:53 PM,51.1,37.9,61,30.13,10.0,East,3.5,-,N/A,,Overcast,80,2012-12-15 22:53:00
6:53 PM,51.1,37.9,61,30.13,10.0,East,3.5,-,N/A,,Mostly Cloudy,100,2012-12-15 23:53:00
7:53 PM,51.1,37.9,61,30.14,10.0,ESE,3.5,-,N/A,,Overcast,120,2012-12-16 00:53:00
8:53 PM,51.1,39.0,63,30.10,10.0,ESE,3.5,-,N/A,,Overcast,120,2012-12-16 01:53:00
9:15 PM,51.8,39.2,62,30.11,10.0,East,3.5,-,N/A,,Overcast,100,2012-12-16 02:15:00
9:53 PM,51.1,39.0,63,30.12,10.0,Calm,Calm,-,N/A,,Overcast,0,2012-12-16 02:53:00
10:53 PM,51.1,39.0,63,30.09,10.0,ESE,3.5,-,N/A,,Overcast,110,2012-12-16 03:53:00
11:53 PM,50.0,39.0,66,30.10,10.0,Calm,Calm,-,N/A,,Overcast,0,2012-12-16 04:53:00